Time;durP1;ratioP1;P1;durP2;ratioP2;P2;SDS_P1;SDS_P2;PMS_P1;PMS_P2;Temp;Humidity;BMP_temperature;BMP_pressure;BME280_temperature;BME280_humidity;BME280_pressure;Samples;Min_cycle;Max_cycle;Signal;HPM_P1;HPM_P2
2023/08/30 00:02:18;;;;;;;7.10;3.80;;;18.60;99.90;;;;;;5009895;28;20018;-84
2023/08/30 00:04:44;;;;;;;10.23;4.00;;;18.50;99.90;;;;;;5013971;28;20121;-83
2023/08/30 00:07:10;;;;;;;8.48;3.85;;;18.60;99.90;;;;;;5028941;28;20278;-83
2023/08/30 00:09:36;;;;;;;8.93;3.97;;;18.60;99.90;;;;;;5021618;28;20029;-83
2023/08/30 00:12:03;;;;;;;7.95;4.03;;;18.60;99.90;;;;;;5013633;28;20180;-83
2023/08/30 00:14:28;;;;;;;7.93;3.92;;;18.60;99.90;;;;;;5009030;28;20036;-84
2023/08/30 00:16:54;;;;;;;11.23;4.10;;;18.60;99.90;;;;;;4995873;28;20116;-84
2023/08/30 00:19:20;;;;;;;10.52;4.32;;;18.60;99.90;;;;;;5010810;28;20363;-84
2023/08/30 00:21:47;;;;;;;8.68;3.60;;;18.40;99.90;;;;;;4993498;28;20045;-83
2023/08/30 00:24:13;;;;;;;10.82;3.88;;;18.50;99.90;;;;;;5012708;28;20535;-84
2023/08/30 00:26:39;;;;;;;10.23;3.53;;;18.50;99.90;;;;;;5032599;28;20041;-83
2023/08/30 00:29:04;;;;;;;8.68;3.90;;;18.60;99.90;;;;;;5032610;28;20017;-84
2023/08/30 00:31:30;;;;;;;5.85;3.55;;;18.50;99.90;;;;;;5032392;28;20114;-84
2023/08/30 00:33:56;;;;;;;6.28;3.42;;;18.50;99.90;;;;;;5029312;28;20025;-84
2023/08/30 00:36:22;;;;;;;7.07;3.47;;;18.40;99.90;;;;;;5029821;28;20032;-84
2023/08/30 00:38:47;;;;;;;8.70;3.72;;;18.40;99.90;;;;;;5013518;28;20022;-84
2023/08/30 00:41:13;;;;;;;10.48;4.13;;;18.50;99.90;;;;;;5030669;28;20499;-84
2023/08/30 00:43:39;;;;;;;8.32;4.10;;;18.40;99.90;;;;;;5032333;28;20049;-84
2023/08/30 00:46:04;;;;;;;9.32;3.88;;;18.40;99.90;;;;;;5014134;28;20049;-83
2023/08/30 00:48:30;;;;;;;8.75;3.80;;;18.40;99.90;;;;;;5012612;28;20022;-84
2023/08/30 00:50:56;;;;;;;8.32;4.22;;;18.30;99.90;;;;;;5012430;28;20034;-83
2023/08/30 00:53:22;;;;;;;10.82;3.95;;;18.30;99.90;;;;;;5027445;28;20040;-84
2023/08/30 00:55:47;;;;;;;6.97;3.67;;;18.30;99.90;;;;;;5032223;28;20033;-84
2023/08/30 00:58:13;;;;;;;10.65;4.70;;;18.30;99.90;;;;;;5012372;28;20444;-83
2023/08/30 01:00:39;;;;;;;8.43;3.65;;;18.20;99.90;;;;;;5020902;28;20103;-84
2023/08/30 01:03:07;;;;;;;6.63;3.60;;;18.30;99.90;;;;;;5031138;28;20152;-84
2023/08/30 01:05:33;;;;;;;8.05;3.63;;;18.30;99.90;;;;;;5017413;28;20044;-84
2023/08/30 01:07:58;;;;;;;9.07;3.42;;;18.30;99.90;;;;;;5012164;28;20109;-85
2023/08/30 01:10:35;;;;;;;7.80;3.67;;;18.30;99.90;;;;;;5013004;28;20112;-84
2023/08/30 01:13:09;;;;;;;7.90;3.80;;;18.30;99.90;;;;;;5012030;28;20040;-83
2023/08/30 01:15:38;;;;;;;12.10;4.18;;;18.20;99.90;;;;;;5019540;28;20030;-84
2023/08/30 01:18:05;;;;;;;6.68;3.47;;;18.30;99.90;;;;;;5011824;28;20481;-83
2023/08/30 01:20:36;;;;;;;9.32;4.30;;;18.20;99.90;;;;;;5013012;28;20049;-83
2023/08/30 01:23:06;;;;;;;8.85;3.95;;;18.20;99.90;;;;;;5017442;28;20088;-83
2023/08/30 01:25:57;;;;;;;10.35;3.90;;;18.20;99.90;;;;;;5016055;28;20405;-84
2023/08/30 01:28:26;;;;;;;8.63;3.75;;;18.20;99.90;;;;;;5008622;28;20040;-84
2023/08/30 01:30:57;;;;;;;7.20;3.78;;;18.10;99.90;;;;;;5031874;28;20026;-84
2023/08/30 01:33:24;;;;;;;7.53;3.60;;;18.10;99.90;;;;;;5030554;28;20440;-83
2023/08/30 01:35:51;;;;;;;7.05;3.70;;;18.10;99.90;;;;;;5031036;28;20024;-84
2023/08/30 01:38:17;;;;;;;10.60;3.90;;;18.10;99.90;;;;;;5026928;28;20112;-83
2023/08/30 01:40:45;;;;;;;5.97;3.67;;;18.00;99.90;;;;;;5011459;28;20060;-82
2023/08/30 01:43:11;;;;;;;8.32;3.80;;;18.00;99.90;;;;;;5011573;28;20029;-83
2023/08/30 01:45:40;;;;;;;4.78;3.13;;;18.00;99.90;;;;;;5022115;28;20037;-82
2023/08/30 01:48:09;;;;;;;3.72;1.85;;;18.00;99.90;;;;;;5013073;28;20488;-84
2023/08/30 01:50:35;;;;;;;6.72;2.10;;;17.70;99.90;;;;;;5021165;28;20030;-82
2023/08/30 01:53:02;;;;;;;6.18;1.83;;;17.70;99.90;;;;;;5025940;28;20025;-83
2023/08/30 01:55:29;;;;;;;2.80;1.70;;;17.70;99.90;;;;;;5030991;28;20104;-83
2023/08/30 01:57:55;;;;;;;3.78;1.60;;;17.60;99.90;;;;;;5025158;28;20025;-82
2023/08/30 02:00:20;;;;;;;5.82;1.83;;;17.60;99.90;;;;;;5030764;28;20028;-83
2023/08/30 02:02:47;;;;;;;1.95;1.40;;;17.60;99.90;;;;;;5029546;28;20389;-82
2023/08/30 02:05:13;;;;;;;3.75;1.73;;;17.60;99.90;;;;;;5019723;28;20042;-83
2023/08/30 02:07:54;;;;;;;3.35;1.30;;;17.50;99.90;;;;;;5010979;28;20437;-83
2023/08/30 02:10:33;;;;;;;4.35;1.20;;;17.60;99.90;;;;;;5010912;28;20084;-83
2023/08/30 02:13:00;;;;;;;4.97;1.60;;;17.50;99.90;;;;;;5025107;28;20079;-84
2023/08/30 02:15:27;;;;;;;3.42;1.50;;;17.50;99.90;;;;;;5019856;28;20034;-82
2023/08/30 02:17:53;;;;;;;1.92;1.35;;;17.50;99.90;;;;;;5029206;28;20517;-83
2023/08/30 02:20:19;;;;;;;3.75;1.30;;;17.50;99.90;;;;;;5029952;28;20018;-83
2023/08/30 02:22:45;;;;;;;2.05;1.27;;;17.50;99.90;;;;;;5030143;28;20032;-83
2023/08/30 02:25:10;;;;;;;3.22;1.17;;;17.50;99.90;;;;;;5029529;28;20045;-83
2023/08/30 02:27:36;;;;;;;3.40;1.10;;;17.50;99.90;;;;;;5012437;28;20021;-84
2023/08/30 02:30:02;;;;;;;6.30;1.30;;;17.50;99.90;;;;;;5012220;28;20033;-83
2023/08/30 02:32:28;;;;;;;2.83;1.30;;;17.60;99.90;;;;;;5011067;28;20084;-83
2023/08/30 02:34:55;;;;;;;1.92;1.17;;;17.50;99.90;;;;;;5030788;28;20470;-83
2023/08/30 02:37:21;;;;;;;4.32;1.35;;;17.50;99.90;;;;;;5030099;28;20057;-83
2023/08/30 02:39:47;;;;;;;3.50;1.38;;;17.60;99.90;;;;;;5029535;28;20807;-83
2023/08/30 02:42:13;;;;;;;4.88;1.70;;;17.50;99.90;;;;;;5014671;28;20030;-83
2023/08/30 02:44:38;;;;;;;2.70;1.10;;;17.60;99.90;;;;;;5009886;28;20494;-83
2023/08/30 02:47:04;;;;;;;3.80;1.40;;;17.60;99.90;;;;;;5009140;28;20033;-83
2023/08/30 02:49:30;;;;;;;5.13;1.50;;;17.50;99.90;;;;;;5009766;28;20029;-83
2023/08/30 02:51:55;;;;;;;2.63;1.48;;;17.50;99.90;;;;;;5022248;28;20052;-83
2023/08/30 02:54:22;;;;;;;3.05;1.33;;;17.60;99.90;;;;;;5029061;28;20060;-83
2023/08/30 02:56:48;;;;;;;6.60;1.50;;;17.60;99.90;;;;;;5029329;28;20018;-83
2023/08/30 02:59:14;;;;;;;2.50;1.30;;;17.60;99.90;;;;;;5029365;28;20049;-83
2023/08/30 03:01:39;;;;;;;3.30;1.25;;;17.60;99.90;;;;;;5029500;28;20068;-83
2023/08/30 03:04:06;;;;;;;3.20;1.30;;;17.60;99.90;;;;;;5029397;28;20389;-83
2023/08/30 03:06:35;;;;;;;2.70;1.45;;;17.60;99.90;;;;;;5011817;28;20040;-83
2023/08/30 03:09:02;;;;;;;3.22;1.35;;;17.60;99.90;;;;;;5029201;28;20477;-83
2023/08/30 03:11:29;;;;;;;4.03;1.60;;;17.60;99.90;;;;;;5024302;28;20061;-82
2023/08/30 03:13:55;;;;;;;2.35;1.30;;;17.60;99.90;;;;;;5013603;28;20498;-82
2023/08/30 03:16:21;;;;;;;3.28;1.50;;;17.60;99.90;;;;;;5027851;28;20135;-84
2023/08/30 03:18:47;;;;;;;3.17;1.45;;;17.60;99.90;;;;;;5021768;28;20515;-83
2023/08/30 03:21:13;;;;;;;6.10;1.42;;;17.60;99.90;;;;;;5027620;28;20511;-82
2023/08/30 03:23:40;;;;;;;2.55;1.50;;;17.50;99.90;;;;;;5025245;28;20061;-83
2023/08/30 03:26:14;;;;;;;3.83;1.55;;;17.60;99.90;;;;;;5027880;28;20034;-83
2023/08/30 03:28:41;;;;;;;4.47;1.35;;;17.60;99.90;;;;;;5028000;28;20021;-82
2023/08/30 03:31:20;;;;;;;5.88;1.65;;;17.60;99.90;;;;;;5029103;28;20028;-82
2023/08/30 03:33:47;;;;;;;4.78;1.67;;;17.60;99.90;;;;;;5026755;28;20036;-82
2023/08/30 03:36:14;;;;;;;2.75;1.40;;;17.60;99.90;;;;;;5029069;28;20027;-82
2023/08/30 03:38:40;;;;;;;5.35;1.60;;;17.50;99.90;;;;;;5027006;28;20030;-82
2023/08/30 03:41:07;;;;;;;3.70;1.50;;;17.50;99.90;;;;;;5028858;28;20105;-82
2023/08/30 03:43:33;;;;;;;3.42;1.50;;;17.50;99.90;;;;;;5023613;28;20017;-82
2023/08/30 03:45:59;;;;;;;3.15;1.25;;;17.50;99.90;;;;;;5023876;28;20124;-84
2023/08/30 03:48:25;;;;;;;6.25;1.58;;;17.50;99.90;;;;;;5010111;28;20118;-83
2023/08/30 03:50:51;;;;;;;7.13;1.40;;;17.60;99.90;;;;;;5020156;28;20284;-82
2023/08/30 03:53:17;;;;;;;3.60;1.50;;;17.60;99.90;;;;;;5009645;28;20426;-83
2023/08/30 03:55:42;;;;;;;5.78;1.42;;;17.60;99.90;;;;;;5025703;28;20026;-83
2023/08/30 03:58:08;;;;;;;1.98;1.30;;;17.50;99.90;;;;;;5024641;28;20025;-82
2023/08/30 04:00:37;;;;;;;6.22;1.75;;;17.60;99.90;;;;;;5027461;28;20038;-83
2023/08/30 04:03:08;;;;;;;3.83;1.60;;;17.60;99.90;;;;;;5029932;28;20028;-81
2023/08/30 04:05:36;;;;;;;4.70;1.77;;;17.60;99.90;;;;;;5018927;28;20037;-82
2023/08/30 04:08:06;;;;;;;4.50;1.35;;;17.60;99.90;;;;;;5023883;28;20030;-83
2023/08/30 04:10:39;;;;;;;3.10;1.55;;;17.60;99.90;;;;;;5028877;28;20102;-83
2023/08/30 04:13:05;;;;;;;6.53;1.77;;;17.60;99.90;;;;;;5028497;28;20087;-82
2023/08/30 04:15:38;;;;;;;2.58;1.52;;;17.60;99.90;;;;;;5027655;28;20021;-83
2023/08/30 04:18:05;;;;;;;2.25;1.45;;;17.60;99.90;;;;;;5028721;28;20056;-83
2023/08/30 04:20:32;;;;;;;3.78;1.77;;;17.60;99.90;;;;;;5030341;28;20037;-82
2023/08/30 04:23:01;;;;;;;1.52;1.35;;;17.60;99.90;;;;;;5032547;28;20038;-83
2023/08/30 04:25:30;;;;;;;1.77;1.40;;;17.60;99.90;;;;;;5025523;28;20034;-83
2023/08/30 04:27:56;;;;;;;2.47;1.27;;;17.60;99.90;;;;;;5028568;28;20540;-83
2023/08/30 04:30:22;;;;;;;5.57;1.52;;;17.60;99.90;;;;;;5028490;28;20041;-82
2023/08/30 04:32:47;;;;;;;4.50;1.38;;;17.70;99.90;;;;;;5031914;28;20030;-82
2023/08/30 04:35:13;;;;;;;6.30;1.50;;;17.70;99.90;;;;;;5035438;28;20128;-85
2023/08/30 04:37:39;;;;;;;4.97;1.58;;;17.70;99.90;;;;;;5034652;28;20060;-84
2023/08/30 04:40:09;;;;;;;2.03;1.35;;;17.70;99.90;;;;;;5015222;28;20030;-84
2023/08/30 04:42:35;;;;;;;5.82;1.70;;;17.70;99.90;;;;;;5032610;28;20025;-81
2023/08/30 04:45:02;;;;;;;3.75;1.60;;;17.70;99.90;;;;;;5027904;28;20100;-81
2023/08/30 04:47:29;;;;;;;3.38;1.70;;;17.70;99.90;;;;;;5019588;28;20053;-82
2023/08/30 04:49:54;;;;;;;2.50;1.73;;;17.70;99.90;;;;;;5014957;28;20343;-81
2023/08/30 04:52:20;;;;;;;2.47;1.52;;;17.70;99.90;;;;;;5030527;28;20108;-84
2023/08/30 04:54:45;;;;;;;2.83;1.42;;;17.70;99.90;;;;;;5014013;28;20033;-82
2023/08/30 04:57:14;;;;;;;8.40;1.90;;;17.70;99.90;;;;;;5015642;28;20397;-83
2023/08/30 04:59:40;;;;;;;;;;;17.60;99.90;;;;;;5016328;28;20036;-83
2023/08/30 05:02:06;;;;;;;5.63;1.75;;;17.60;99.90;;;;;;5016477;28;19909;-83
2023/08/30 05:04:31;;;;;;;3.50;1.80;;;17.50;99.90;;;;;;5035109;28;20030;-83
2023/08/30 05:06:57;;;;;;;1.92;1.33;;;17.40;99.90;;;;;;5034672;28;20037;-87
2023/08/30 05:09:24;;;;;;;3.05;1.63;;;17.40;99.90;;;;;;5031894;28;20026;-83
2023/08/30 05:11:50;;;;;;;6.10;1.75;;;17.40;99.90;;;;;;5013274;28;20088;-83
2023/08/30 05:14:16;;;;;;;3.30;1.80;;;17.40;99.90;;;;;;5030891;28;20021;-83
2023/08/30 05:16:42;;;;;;;4.18;1.70;;;17.40;99.90;;;;;;5030169;28;20044;-84
2023/08/30 05:19:07;;;;;;;5.45;1.60;;;17.40;99.90;;;;;;5029385;28;20029;-86
2023/08/30 05:21:33;;;;;;;4.53;1.80;;;17.40;99.90;;;;;;5012568;28;20406;-85
2023/08/30 05:23:59;;;;;;;5.28;1.60;;;17.40;99.90;;;;;;5011940;28;20018;-85
2023/08/30 05:26:24;;;;;;;3.00;1.80;;;17.30;99.90;;;;;;5017931;28;20037;-86
2023/08/30 05:28:50;;;;;;;2.80;1.58;;;17.30;99.90;;;;;;5011906;28;20371;-85
2023/08/30 05:31:15;;;;;;;4.68;1.88;;;17.30;99.90;;;;;;5007264;28;20127;-84
2023/08/30 05:33:41;;;;;;;6.30;1.80;;;17.30;99.90;;;;;;5030683;28;20021;-84
2023/08/30 05:36:07;;;;;;;3.88;1.45;;;17.20;99.90;;;;;;5028398;28;20022;-84
2023/08/30 05:38:32;;;;;;;5.18;1.80;;;17.20;99.90;;;;;;5012152;28;20100;-84
2023/08/30 05:40:58;;;;;;;2.97;1.65;;;17.30;99.90;;;;;;5011434;28;20033;-85
2023/08/30 05:43:23;;;;;;;5.85;1.88;;;17.20;99.90;;;;;;5012827;28;20026;-85
2023/08/30 05:45:49;;;;;;;5.53;1.70;;;17.20;99.90;;;;;;5030351;28;20440;-84
2023/08/30 05:48:15;;;;;;;5.20;1.88;;;17.20;99.90;;;;;;5009231;28;20052;-84
2023/08/30 05:50:40;;;;;;;7.10;1.90;;;17.20;99.90;;;;;;4997680;28;20428;-85
2023/08/30 05:53:06;;;;;;;9.20;1.83;;;17.20;99.90;;;;;;5029622;28;20053;-83
2023/08/30 05:55:31;;;;;;;4.22;1.80;;;17.20;99.90;;;;;;5029270;28;20475;-83
2023/08/30 05:57:57;;;;;;;3.60;1.77;;;17.20;99.90;;;;;;5012513;28;20026;-83
2023/08/30 06:00:23;;;;;;;5.25;1.83;;;17.20;99.90;;;;;;4994308;28;20036;-84
2023/08/30 06:02:51;;;;;;;7.70;2.20;;;17.10;99.90;;;;;;5030025;28;20025;-84
2023/08/30 06:05:17;;;;;;;4.65;2.10;;;17.20;99.90;;;;;;5030805;28;20099;-83
2023/08/30 06:07:42;;;;;;;9.55;2.30;;;17.20;99.90;;;;;;5030325;28;20022;-83
2023/08/30 06:10:09;;;;;;;8.73;1.90;;;17.20;99.90;;;;;;5030866;28;20033;-84
2023/08/30 06:12:34;;;;;;;6.38;1.77;;;17.10;99.90;;;;;;5030881;28;20489;-84
2023/08/30 06:15:00;;;;;;;3.90;1.80;;;17.20;99.90;;;;;;5027797;28;20036;-84
2023/08/30 06:17:25;;;;;;;4.10;1.83;;;17.20;99.90;;;;;;5011900;28;20187;-84
2023/08/30 06:19:51;;;;;;;5.45;1.70;;;17.20;99.90;;;;;;5023001;28;20034;-84
2023/08/30 06:22:17;;;;;;;5.60;1.90;;;17.20;99.90;;;;;;5024386;28;20438;-85
2023/08/30 06:24:42;;;;;;;9.07;2.25;;;17.20;99.90;;;;;;5011232;28;20037;-85
2023/08/30 06:27:08;;;;;;;4.40;1.75;;;17.20;99.90;;;;;;5029836;28;20511;-85
2023/08/30 06:29:34;;;;;;;9.43;2.13;;;17.20;99.90;;;;;;5028291;28;20163;-84
2023/08/30 06:31:59;;;;;;;4.72;1.90;;;17.20;99.90;;;;;;5030114;28;20667;-84
2023/08/30 06:34:25;;;;;;;4.70;1.90;;;17.20;99.90;;;;;;5010625;28;20120;-84
2023/08/30 06:36:51;;;;;;;2.90;1.85;;;17.30;99.90;;;;;;5008891;28;20049;-85
2023/08/30 06:39:18;;;;;;;4.95;1.95;;;17.30;99.90;;;;;;5010437;28;20038;-85
2023/08/30 06:41:43;;;;;;;4.13;1.80;;;17.30;99.90;;;;;;5013572;28;20030;-86
2023/08/30 06:44:09;;;;;;;3.75;1.90;;;17.30;99.90;;;;;;5030221;28;20116;-87
2023/08/30 06:46:34;;;;;;;7.28;1.80;;;17.30;99.90;;;;;;5029533;28;20393;-86
2023/08/30 06:49:00;;;;;;;8.63;1.75;;;17.30;99.90;;;;;;5028446;28;20371;-86
2023/08/30 06:51:25;;;;;;;7.50;2.30;;;17.30;99.90;;;;;;5022764;28;20048;-85
2023/08/30 06:53:51;;;;;;;9.40;2.30;;;17.30;99.90;;;;;;5013533;28;20040;-86
2023/08/30 06:56:17;;;;;;;5.28;2.20;;;17.30;99.90;;;;;;5011121;28;22418;-85
2023/08/30 06:58:42;;;;;;;7.03;2.05;;;17.40;99.90;;;;;;5005781;28;20108;-85
2023/08/30 07:01:08;;;;;;;5.15;2.00;;;17.40;99.90;;;;;;5002762;28;20034;-87
2023/08/30 07:03:33;;;;;;;8.45;1.90;;;17.30;99.90;;;;;;5002854;28;20044;-86
2023/08/30 07:05:59;;;;;;;5.50;2.00;;;17.40;99.90;;;;;;5000794;28;20048;-85
2023/08/30 07:08:25;;;;;;;10.02;2.13;;;17.30;99.90;;;;;;4998907;28;20167;-86
2023/08/30 07:10:51;;;;;;;7.85;2.25;;;17.30;99.90;;;;;;4997986;28;20030;-85
2023/08/30 07:13:17;;;;;;;8.15;2.00;;;17.30;99.90;;;;;;4996998;28;20477;-86
2023/08/30 07:15:42;;;;;;;6.80;2.15;;;17.30;99.90;;;;;;5010438;28;20075;-86
2023/08/30 07:18:09;;;;;;;4.00;2.10;;;17.30;99.90;;;;;;4980967;28;20087;-86
2023/08/30 07:20:36;;;;;;;7.22;2.30;;;17.40;99.90;;;;;;4998453;28;20384;-86
2023/08/30 07:23:02;;;;;;;6.35;2.03;;;17.50;99.90;;;;;;5003320;28;20026;-86
2023/08/30 07:25:30;;;;;;;5.80;2.00;;;17.50;99.90;;;;;;5019787;28;20072;-85
2023/08/30 07:27:56;;;;;;;7.78;2.22;;;17.50;99.90;;;;;;5029265;28;20091;-85
2023/08/30 07:30:22;;;;;;;6.05;2.50;;;17.50;99.90;;;;;;5028854;28;20436;-85
2023/08/30 07:32:47;;;;;;;7.57;2.05;;;17.60;99.90;;;;;;5029124;28;20083;-86
2023/08/30 07:35:13;;;;;;;4.95;2.13;;;17.60;99.90;;;;;;5028935;28;20461;-86
2023/08/30 07:37:39;;;;;;;7.18;2.05;;;17.60;99.90;;;;;;5030103;28;20041;-85
2023/08/30 07:40:05;;;;;;;5.90;1.95;;;17.60;99.90;;;;;;5011385;28;20025;-86
2023/08/30 07:42:30;;;;;;;6.55;2.53;;;17.60;99.90;;;;;;5028690;28;20029;-86
2023/08/30 07:44:56;;;;;;;6.85;2.13;;;17.70;99.90;;;;;;5028780;28;20116;-86
2023/08/30 07:47:22;;;;;;;7.05;2.30;;;17.70;99.90;;;;;;5028953;28;20025;-86
2023/08/30 07:49:47;;;;;;;7.43;2.30;;;17.70;99.90;;;;;;5028973;28;20029;-87
2023/08/30 07:52:14;;;;;;;3.83;2.05;;;17.80;99.90;;;;;;5029920;28;20033;-85
2023/08/30 07:54:40;;;;;;;6.57;2.03;;;17.90;99.90;;;;;;5029893;28;20071;-85
2023/08/30 07:57:06;;;;;;;5.00;1.83;;;17.90;99.90;;;;;;5029057;28;20026;-86
2023/08/30 07:59:38;;;;;;;4.70;1.90;;;18.10;99.90;;;;;;5017606;28;20029;-85
2023/08/30 08:02:07;;;;;;;5.10;1.90;;;18.10;99.90;;;;;;5012201;28;20076;-90
2023/08/30 08:04:52;;;;;;;6.88;1.77;;;18.20;99.90;;;;;;5027696;28;21683;-86
2023/08/30 08:07:18;;;;;;;3.53;1.90;;;18.20;99.90;;;;;;5006098;28;20044;-86
2023/08/30 08:09:43;;;;;;;5.18;2.10;;;18.20;99.90;;;;;;5027220;28;20025;-86
2023/08/30 08:12:09;;;;;;;4.57;1.73;;;18.30;99.90;;;;;;5028022;28;20025;-86
2023/08/30 08:14:34;;;;;;;10.38;2.17;;;18.10;99.90;;;;;;5024660;28;20030;-86
2023/08/30 08:17:00;;;;;;;7.47;1.75;;;18.00;99.90;;;;;;5009709;28;20034;-86
2023/08/30 08:19:26;;;;;;;4.97;1.80;;;18.20;99.90;;;;;;5027272;28;20037;-86
2023/08/30 08:21:53;;;;;;;5.30;1.77;;;18.20;99.90;;;;;;5028258;28;20492;-86
2023/08/30 08:24:18;;;;;;;5.07;2.30;;;18.30;99.90;;;;;;5028298;28;20024;-86
2023/08/30 08:26:45;;;;;;;3.05;1.77;;;18.30;99.90;;;;;;5027226;28;20034;-85
2023/08/30 08:29:11;;;;;;;4.18;1.95;;;18.10;99.90;;;;;;4991979;28;20022;-86
2023/08/30 08:31:37;;;;;;;5.88;1.85;;;18.10;99.90;;;;;;5014838;28;20084;-86
2023/08/30 08:34:12;;;;;;;7.60;2.38;;;18.30;99.90;;;;;;5014811;28;20018;-86
2023/08/30 08:36:39;;;;;;;5.50;2.20;;;18.50;99.90;;;;;;5028839;28;20041;-86
2023/08/30 08:39:06;;;;;;;3.33;1.65;;;18.50;99.90;;;;;;5009083;28;20026;-87
2023/08/30 08:41:42;;;;;;;5.60;1.70;;;18.60;99.90;;;;;;4990938;28;20080;-87
2023/08/30 08:44:08;;;;;;;5.03;1.63;;;18.70;99.90;;;;;;5015485;28;20032;-86
2023/08/30 08:46:38;;;;;;;4.45;1.80;;;18.70;99.90;;;;;;5019465;28;20045;-86
2023/08/30 08:49:17;;;;;;;6.43;2.45;;;18.70;99.90;;;;;;5020771;28;20026;-88
2023/08/30 08:51:44;;;;;;;6.72;2.10;;;18.60;99.90;;;;;;5013033;28;20499;-87
2023/08/30 08:54:11;;;;;;;4.15;1.80;;;18.50;99.90;;;;;;5012426;28;20034;-87
2023/08/30 08:56:37;;;;;;;4.88;1.90;;;18.50;99.90;;;;;;5013577;28;20236;-87
2023/08/30 08:59:06;;;;;;;10.30;2.47;;;18.40;99.90;;;;;;5012403;28;20076;-87
2023/08/30 09:01:39;;;;;;;6.90;2.60;;;18.70;99.90;;;;;;5014176;28;20022;-87
2023/08/30 09:04:14;;;;;;;3.05;1.80;;;18.80;99.90;;;;;;5014158;28;20450;-86
2023/08/30 09:06:40;;;;;;;4.38;1.77;;;18.90;99.90;;;;;;5032008;28;20041;-86
2023/08/30 09:09:06;;;;;;;4.60;1.67;;;18.90;99.90;;;;;;5017920;28;20497;-87
2023/08/30 09:11:32;;;;;;;4.78;1.60;;;18.80;99.90;;;;;;5012956;28;20030;-86
2023/08/30 09:13:58;;;;;;;2.78;1.60;;;18.70;99.90;;;;;;5012799;28;20033;-86
2023/08/30 09:16:23;;;;;;;3.63;1.70;;;18.70;99.90;;;;;;5015784;28;20030;-87
2023/08/30 09:19:03;;;;;;;3.22;1.63;;;18.70;99.90;;;;;;5031732;28;20562;-87
2023/08/30 09:21:29;;;;;;;6.00;1.55;;;18.80;99.90;;;;;;5013944;28;20029;-87
2023/08/30 09:24:04;;;;;;;4.45;1.88;;;18.90;99.90;;;;;;5031683;28;20392;-87
2023/08/30 09:26:32;;;;;;;4.47;1.33;;;19.00;99.90;;;;;;5013480;28;20037;-87
2023/08/30 09:29:05;;;;;;;7.83;2.00;;;19.10;99.90;;;;;;5018064;28;20025;-87
2023/08/30 09:31:39;;;;;;;4.97;1.80;;;19.10;99.90;;;;;;5031465;28;20364;-86
2023/08/30 09:34:04;;;;;;;7.15;1.80;;;19.20;99.90;;;;;;5031552;28;20018;-87
2023/08/30 09:36:36;;;;;;;4.05;1.70;;;19.20;99.90;;;;;;5031359;28;20025;-86
2023/08/30 09:39:20;;;;;;;5.03;1.52;;;19.30;99.90;;;;;;5030980;28;20037;-85
2023/08/30 09:41:50;;;;;;;4.63;1.70;;;19.30;99.90;;;;;;5024496;28;20037;-86
2023/08/30 09:44:24;;;;;;;4.75;1.55;;;19.30;99.90;;;;;;5021488;28;20410;-86
2023/08/30 09:46:55;;;;;;;2.72;1.50;;;19.40;99.90;;;;;;5011599;28;20095;-87
2023/08/30 09:49:22;;;;;;;5.68;1.85;;;19.50;99.90;;;;;;5021790;28;20028;-87
2023/08/30 09:51:51;;;;;;;3.67;1.65;;;19.60;99.90;;;;;;5027787;28;20026;-87
2023/08/30 09:54:20;;;;;;;6.10;1.80;;;19.60;99.90;;;;;;5012073;28;20378;-87
2023/08/30 09:56:46;;;;;;;5.53;2.03;;;19.60;99.90;;;;;;5010517;28;20034;-87
2023/08/30 09:59:14;;;;;;;6.18;2.58;;;19.50;99.90;;;;;;5023376;28;20025;-87
2023/08/30 10:01:41;;;;;;;6.20;2.10;;;19.60;99.90;;;;;;5013828;28;20229;-86
2023/08/30 10:04:10;;;;;;;9.68;1.90;;;19.60;99.90;;;;;;5023678;28;20049;-87
2023/08/30 10:06:40;;;;;;;8.27;2.78;;;19.70;99.90;;;;;;5023504;28;20037;-88
2023/08/30 10:09:10;;;;;;;6.72;2.65;;;19.90;99.90;;;;;;5030165;28;20551;-88
2023/08/30 10:11:37;;;;;;;7.40;2.15;;;20.00;99.90;;;;;;5029785;28;20029;-88
2023/08/30 10:14:07;;;;;;;6.03;1.58;;;19.80;99.90;;;;;;5028533;28;20033;-88
2023/08/30 10:16:58;;;;;;;5.88;1.70;;;19.60;99.90;;;;;;5012534;28;20032;-87
2023/08/30 10:19:26;;;;;;;5.28;1.85;;;19.60;99.90;;;;;;5030535;28;20366;-87
2023/08/30 10:21:56;;;;;;;;;;;19.60;99.90;;;;;;5029990;28;20029;-87
2023/08/30 10:24:23;;;;;;;6.25;1.75;;;19.60;99.90;;;;;;5010595;28;19955;-87
2023/08/30 10:26:50;;;;;;;3.38;1.73;;;19.60;99.90;;;;;;5011333;28;20030;-87
2023/08/30 10:29:17;;;;;;;6.68;1.90;;;19.80;99.90;;;;;;5029597;28;20017;-87
2023/08/30 10:31:43;;;;;;;8.80;2.30;;;19.90;99.90;;;;;;5030367;28;20040;-87
2023/08/30 10:34:15;;;;;;;6.05;2.10;;;19.90;99.90;;;;;;5030347;28;20025;-87
2023/08/30 10:36:41;;;;;;;11.30;2.05;;;20.10;99.90;;;;;;5030295;28;20041;-87
2023/08/30 10:39:12;;;;;;;6.25;1.67;;;19.90;99.90;;;;;;5012200;28;20079;-88
2023/08/30 10:41:38;;;;;;;7.35;2.15;;;20.00;99.90;;;;;;5012199;28;20029;-88
2023/08/30 10:44:04;;;;;;;4.88;1.70;;;20.00;99.90;;;;;;5011475;28;20033;-87
2023/08/30 10:46:31;;;;;;;4.43;1.65;;;20.10;99.90;;;;;;4993318;28;20061;-87
2023/08/30 10:49:07;;;;;;;7.28;1.73;;;20.10;99.90;;;;;;5028230;28;20026;-87
2023/08/30 10:51:38;;;;;;;5.45;1.90;;;20.10;99.90;;;;;;5025935;28;20489;-88
2023/08/30 10:54:17;;;;;;;5.65;1.98;;;20.00;99.90;;;;;;4992601;28;20116;-87
2023/08/30 10:57:17;;;;;;;8.38;2.20;;;19.90;99.90;;;;;;5010328;28;20772;-87
2023/08/30 11:00:09;;;;;;;11.50;3.33;;;19.90;99.90;;;;;;4980627;28;20038;-87
2023/08/30 11:02:38;;;;;;;9.80;2.22;;;19.90;99.90;;;;;;5034605;28;20034;-87
2023/08/30 11:05:06;;;;;;;7.72;1.98;;;20.00;99.90;;;;;;5029584;28;20064;-88
2023/08/30 11:07:32;;;;;;;10.70;2.20;;;20.20;99.90;;;;;;5017201;28;20021;-88
2023/08/30 11:09:58;;;;;;;7.93;2.53;;;20.30;99.90;;;;;;5009450;28;20028;-87
2023/08/30 11:12:29;;;;;;;8.27;2.17;;;20.40;99.90;;;;;;5019602;28;20025;-87
2023/08/30 11:14:55;;;;;;;9.73;2.45;;;20.40;99.90;;;;;;5029613;28;20021;-87
2023/08/30 11:17:21;;;;;;;5.63;2.22;;;20.50;99.90;;;;;;5029274;28;20040;-87
2023/08/30 11:19:51;;;;;;;8.48;2.10;;;20.60;99.90;;;;;;5029477;28;20029;-87
2023/08/30 11:22:18;;;;;;;9.57;2.28;;;20.60;99.90;;;;;;5028747;28;20107;-87
2023/08/30 11:24:47;;;;;;;9.40;2.10;;;20.70;99.90;;;;;;5017531;28;20053;-87
2023/08/30 11:27:15;;;;;;;5.93;2.08;;;20.70;99.90;;;;;;5009510;28;20585;-87
2023/08/30 11:29:41;;;;;;;11.40;2.90;;;20.60;99.90;;;;;;5009411;28;20021;-88
2023/08/30 11:32:07;;;;;;;6.10;1.85;;;20.50;99.90;;;;;;5013341;28;20092;-87
2023/08/30 11:34:33;;;;;;;5.20;1.98;;;20.50;99.90;;;;;;5018308;28;20397;-87
2023/08/30 11:36:59;;;;;;;7.72;2.03;;;20.60;99.90;;;;;;5009500;28;20030;-87
2023/08/30 11:39:28;;;;;;;10.23;2.05;;;20.50;99.90;;;;;;5010202;28;20026;-87
2023/08/30 11:41:53;;;;;;;7.63;2.30;;;20.60;99.90;;;;;;5022946;28;20022;-87
2023/08/30 11:44:19;;;;;;;7.53;2.47;;;20.50;99.90;;;;;;5028791;28;20028;-86
2023/08/30 11:46:46;;;;;;;7.80;2.30;;;20.60;99.90;;;;;;5028813;28;20285;-87
2023/08/30 11:49:12;;;;;;;8.73;2.40;;;20.50;99.90;;;;;;5012074;28;20029;-88
2023/08/30 11:51:38;;;;;;;8.07;2.00;;;20.50;99.90;;;;;;5018482;28;20065;-87
2023/08/30 11:54:04;;;;;;;8.75;2.50;;;20.40;99.90;;;;;;4996303;28;20052;-88
2023/08/30 11:56:30;;;;;;;7.15;2.00;;;20.50;99.90;;;;;;5028806;28;20024;-86
2023/08/30 11:58:56;;;;;;;10.60;3.05;;;20.50;99.90;;;;;;5000363;28;20096;-87
2023/08/30 12:01:22;;;;;;;11.02;2.30;;;20.50;99.90;;;;;;5010130;28;20022;-86
2023/08/30 12:03:50;;;;;;;9.13;2.47;;;20.50;99.90;;;;;;5011077;28;20482;-87
2023/08/30 12:06:16;;;;;;;10.50;2.20;;;20.60;99.90;;;;;;5027639;28;20486;-86
2023/08/30 12:08:42;;;;;;;7.82;2.40;;;20.60;99.90;;;;;;5011114;28;20024;-87
2023/08/30 12:11:20;;;;;;;11.68;2.72;;;20.50;99.90;;;;;;5008697;28;20033;-87
2023/08/30 12:13:47;;;;;;;6.78;2.15;;;20.50;99.90;;;;;;5021429;28;20029;-86
2023/08/30 12:16:17;;;;;;;7.57;2.20;;;20.40;99.90;;;;;;5011162;28;20048;-85
2023/08/30 12:18:43;;;;;;;5.93;2.30;;;20.40;99.90;;;;;;5028302;28;20030;-86
2023/08/30 12:21:09;;;;;;;8.50;2.35;;;20.50;99.90;;;;;;5009885;28;20036;-86
2023/08/30 12:23:34;;;;;;;8.98;2.55;;;20.50;99.90;;;;;;5012971;28;20030;-85
2023/08/30 12:26:07;;;;;;;9.55;2.72;;;20.60;99.90;;;;;;5025435;28;20041;-86
2023/08/30 12:28:41;;;;;;;10.93;3.28;;;20.70;99.90;;;;;;5032839;28;20052;-86
2023/08/30 12:31:07;;;;;;;10.73;2.45;;;20.80;99.90;;;;;;5032766;28;20116;-87
2023/08/30 12:33:34;;;;;;;10.38;2.22;;;20.90;99.90;;;;;;5032698;28;20552;-86
2023/08/30 12:36:00;;;;;;;12.63;2.53;;;21.00;99.90;;;;;;5032598;28;20014;-86
2023/08/30 12:38:26;;;;;;;8.75;2.35;;;20.80;99.90;;;;;;5033286;28;20034;-86
2023/08/30 12:40:54;;;;;;;8.85;2.50;;;21.00;99.90;;;;;;5032516;28;20025;-86
2023/08/30 12:43:21;;;;;;;8.75;2.17;;;21.00;99.90;;;;;;5031000;28;20370;-86
2023/08/30 12:45:47;;;;;;;9.60;2.33;;;21.10;99.90;;;;;;5032054;28;20083;-85
2023/08/30 12:48:15;;;;;;;7.80;2.65;;;21.10;99.90;;;;;;5031957;28;20018;-86